createdAt,value
2024-05-09T05:02:26.295Z,50.00
2024-05-09T05:03:03.141Z,50.00
2024-05-09T05:04:03.111Z,50.00
2024-05-09T05:05:03.148Z,50.00
2024-05-09T05:06:03.189Z,50.00
2024-05-09T05:07:03.195Z,50.00
2024-05-09T05:08:03.240Z,23.76
2024-05-09T05:09:03.356Z,0.00
2024-05-09T05:10:05.678Z,0.00
2024-05-09T05:11:03.634Z,0.00
2024-05-09T05:12:03.767Z,0.00
2024-05-09T05:13:03.763Z,0.00
2024-05-09T05:14:03.890Z,0.00
2024-05-09T05:15:03.916Z,0.00
2024-05-09T05:16:04.034Z,0.00
2024-05-09T05:17:04.175Z,0.00
2024-05-09T05:18:04.767Z,0.00
2024-05-09T05:19:05.859Z,0.00
2024-05-09T05:20:05.755Z,0.00
2024-05-09T05:21:04.345Z,0.00
2024-05-09T05:22:04.266Z,0.00
2024-05-09T05:23:04.357Z,0.00
2024-05-09T05:24:04.296Z,0.00
2024-05-09T05:25:04.259Z,0.00
2024-05-09T05:26:04.327Z,0.00
2024-05-09T05:27:04.285Z,0.00
2024-05-09T05:28:04.260Z,0.00
2024-05-09T05:29:04.387Z,0.00
2024-05-09T05:30:07.353Z,0.12
2024-05-09T05:31:05.287Z,0.00
2024-05-09T05:32:04.361Z,0.00
2024-05-09T05:33:04.331Z,0.00
2024-05-09T05:34:04.338Z,0.00
2024-05-09T05:35:04.407Z,0.00
2024-05-09T05:36:04.284Z,0.00
2024-05-09T05:37:04.332Z,13.40
2024-05-09T05:38:04.324Z,29.43
2024-05-09T05:39:04.329Z,48.95
2024-05-09T05:40:04.437Z,50.54
2024-05-09T05:41:04.379Z,50.85
2024-05-09T05:42:04.371Z,50.00
2024-05-09T05:43:04.498Z,50.00
2024-05-09T05:44:04.592Z,51.70
2024-05-09T05:45:06.699Z,50.35
2024-05-09T05:46:04.612Z,51.59
2024-05-09T05:47:04.625Z,50.23
2024-05-09T05:48:05.233Z,50.25
2024-05-09T05:49:04.650Z,50.91
2024-05-09T05:50:09.344Z,51.33
2024-05-09T05:51:05.747Z,50.62
2024-05-09T05:52:04.698Z,47.90
2024-05-09T05:53:04.633Z,47.53
2024-05-09T05:54:04.628Z,43.98
2024-05-09T05:55:04.653Z,42.77
2024-05-09T05:56:04.692Z,51.35
2024-05-09T05:57:04.682Z,51.51
2024-05-09T05:58:04.711Z,50.00
2024-05-09T05:59:04.715Z,52.76
2024-05-09T06:00:09.390Z,50.69
2024-05-09T06:01:05.747Z,50.70
2024-05-09T06:02:04.716Z,50.87
2024-05-09T06:03:04.967Z,51.36
2024-05-09T06:04:04.951Z,47.31
2024-05-09T06:05:04.764Z,47.64
2024-05-09T06:06:04.726Z,51.80
2024-05-09T06:07:04.695Z,51.79
2024-05-09T06:08:04.838Z,50.36
2024-05-09T06:09:04.672Z,50.00
2024-05-09T06:10:07.251Z,51.09
2024-05-09T06:11:05.791Z,51.13
2024-05-09T06:12:04.899Z,51.27
2024-05-09T06:13:04.675Z,51.42
2024-05-09T06:14:04.718Z,50.50
2024-05-09T06:15:04.688Z,47.05
2024-05-09T06:16:04.744Z,50.58
2024-05-09T06:17:04.740Z,54.38
2024-05-09T06:18:04.973Z,50.00
2024-05-09T06:19:04.887Z,50.00
2024-05-09T06:20:07.419Z,52.00
2024-05-09T06:21:05.836Z,52.01
2024-05-09T06:22:04.719Z,52.19
2024-05-09T06:23:05.056Z,52.14
2024-05-09T06:24:06.674Z,51.91
2024-05-09T06:25:04.755Z,49.35
2024-05-09T06:26:04.840Z,50.45
2024-05-09T06:27:04.715Z,53.56
2024-05-09T06:28:04.969Z,50.25
2024-05-09T06:29:04.769Z,50.00
2024-05-09T06:30:05.169Z,51.54
2024-05-09T06:31:04.831Z,50.59
2024-05-09T06:32:05.049Z,52.51
2024-05-09T06:33:05.162Z,50.00
2024-05-09T06:34:05.139Z,50.30
2024-05-09T06:35:05.058Z,51.17
2024-05-09T06:36:05.068Z,52.83
2024-05-09T06:37:05.119Z,53.77
2024-05-09T06:38:05.303Z,50.32
2024-05-09T06:39:05.193Z,52.55
2024-05-09T06:40:07.198Z,53.18
2024-05-09T06:41:05.322Z,51.36
2024-05-09T06:42:05.310Z,51.46
2024-05-09T06:43:05.368Z,50.00
2024-05-09T06:44:05.449Z,53.37
2024-05-09T06:45:05.442Z,54.96
2024-05-09T06:46:05.528Z,52.09
2024-05-09T06:47:05.681Z,53.02
2024-05-09T06:48:05.872Z,52.13
2024-05-09T06:49:05.866Z,51.32
2024-05-09T06:50:10.433Z,51.14
2024-05-09T06:51:06.741Z,50.89
2024-05-09T06:52:06.568Z,51.16
2024-05-09T06:53:05.750Z,50.19
2024-05-09T06:54:05.722Z,50.13
2024-05-09T06:55:05.700Z,53.51
2024-05-09T06:56:05.741Z,50.92
2024-05-09T06:57:05.723Z,50.77
2024-05-09T06:58:05.711Z,52.26
2024-05-09T06:59:05.751Z,54.44
2024-05-09T07:00:08.214Z,53.60
2024-05-09T07:01:05.757Z,53.62
2024-05-09T07:02:05.784Z,53.63
2024-05-09T07:03:06.220Z,54.39
2024-05-09T07:04:05.953Z,49.93
2024-05-09T07:05:05.865Z,52.67
2024-05-09T07:06:05.894Z,51.35
2024-05-09T07:07:05.736Z,50.15
2024-05-09T07:08:05.821Z,51.51
2024-05-09T07:09:05.727Z,50.58
2024-05-09T07:10:07.799Z,50.81
2024-05-09T07:11:05.867Z,50.85
2024-05-09T07:12:05.758Z,50.83
2024-05-09T07:13:05.723Z,50.25
2024-05-09T07:14:05.758Z,49.64
2024-05-09T07:15:05.752Z,50.14
2024-05-09T07:16:05.745Z,50.00
2024-05-09T07:17:05.781Z,53.57
2024-05-09T07:18:05.872Z,50.53
2024-05-09T07:19:05.879Z,51.28
2024-05-09T07:20:08.977Z,53.06
2024-05-09T07:21:05.789Z,51.99
2024-05-09T07:22:05.752Z,53.11
2024-05-09T07:23:05.776Z,51.71
2024-05-09T07:24:05.746Z,50.17
2024-05-09T07:25:05.749Z,50.19
2024-05-09T07:26:05.792Z,52.96
2024-05-09T07:27:05.753Z,53.01
2024-05-09T07:28:05.761Z,52.79
2024-05-09T07:29:05.848Z,53.07
2024-05-09T07:30:07.317Z,52.35
2024-05-09T07:31:05.759Z,52.87
2024-05-09T07:32:05.794Z,53.50
2024-05-09T07:33:05.902Z,50.00
2024-05-09T07:34:05.831Z,54.98
2024-05-09T07:35:05.786Z,51.45
2024-05-09T07:36:05.778Z,51.21
2024-05-09T07:37:05.768Z,51.08
2024-05-09T07:38:05.776Z,50.16
2024-05-09T07:39:05.784Z,51.58
2024-05-09T07:40:07.563Z,52.02
2024-05-09T07:41:05.838Z,50.45
2024-05-09T07:42:05.755Z,52.88
2024-05-09T07:43:05.795Z,52.55
2024-05-09T07:44:05.904Z,50.81
2024-05-09T07:45:21.558Z,52.98
2024-05-09T07:47:04.569Z,52.66
2024-05-09T07:48:14.509Z,52.99
2024-05-09T07:53:36.555Z,53.01
2024-05-09T07:54:07.469Z,53.08
2024-05-09T07:55:05.988Z,53.09
2024-05-09T07:56:06.166Z,50.93
2024-05-09T07:57:05.814Z,49.17
2024-05-09T07:58:05.846Z,48.40
2024-05-09T07:59:05.842Z,50.58
2024-05-09T08:00:06.708Z,51.17
2024-05-09T08:01:06.129Z,52.54
2024-05-09T08:02:06.055Z,54.12
2024-05-09T08:03:05.889Z,52.93
2024-05-09T08:04:05.961Z,51.31
2024-05-09T08:05:06.046Z,52.05
2024-05-09T08:06:05.865Z,50.47
2024-05-09T08:07:06.067Z,53.89
2024-05-09T08:08:05.956Z,50.05
2024-05-09T08:09:11.051Z,51.23
2024-05-09T08:10:10.692Z,51.26
2024-05-09T08:11:07.108Z,51.33
2024-05-09T08:12:06.017Z,51.72
2024-05-09T08:13:06.196Z,52.31
2024-05-09T08:14:06.009Z,51.83
2024-05-09T08:15:06.028Z,55.12
2024-05-09T08:16:06.206Z,56.03
2024-05-09T08:17:06.042Z,57.09
2024-05-09T08:18:06.185Z,58.19
2024-05-09T08:19:06.171Z,61.09
2024-05-09T08:20:06.308Z,62.06
2024-05-09T08:21:06.024Z,65.71
2024-05-09T08:22:06.044Z,64.48
2024-05-09T08:23:06.010Z,65.87
2024-05-09T08:24:06.040Z,70.20
2024-05-09T08:25:06.142Z,68.88
2024-05-09T08:26:06.035Z,72.28
2024-05-09T08:27:06.086Z,72.52
2024-05-09T08:28:06.131Z,75.00
2024-05-09T08:29:06.038Z,74.52
2024-05-09T08:30:07.925Z,75.19
2024-05-09T08:31:07.078Z,75.34
2024-05-09T08:32:06.039Z,76.10
2024-05-09T08:33:07.051Z,76.98
2024-05-09T08:34:06.125Z,79.05
2024-05-09T08:35:06.084Z,82.47
2024-05-09T08:36:06.067Z,84.76
2024-05-09T08:37:13.046Z,88.50
2024-05-09T08:38:07.310Z,88.66
2024-05-09T08:39:06.054Z,89.08
2024-05-09T08:40:08.539Z,89.81
2024-05-09T08:41:07.083Z,88.65
2024-05-09T08:42:06.052Z,89.04
2024-05-09T08:43:06.105Z,89.78
2024-05-09T08:44:06.039Z,91.30
2024-05-09T08:45:06.070Z,94.06
2024-05-09T08:46:06.127Z,94.53
2024-05-09T08:47:06.118Z,95.44
2024-05-09T08:48:06.495Z,95.98
2024-05-09T08:49:06.177Z,96.97
2024-05-09T08:51:06.073Z,95.08
2024-05-09T08:52:06.127Z,94.50
2024-05-09T08:53:06.119Z,92.14
2024-05-09T08:54:06.096Z,90.27
2024-05-09T08:55:06.114Z,89.08
2024-05-09T08:56:06.091Z,89.12
2024-05-09T08:57:06.117Z,89.05
2024-05-09T08:58:06.288Z,87.68
2024-05-09T08:59:06.091Z,88.55
2024-05-09T09:00:10.022Z,90.19
2024-05-09T09:01:07.239Z,90.30
2024-05-09T09:02:06.191Z,90.40
2024-05-09T09:03:06.281Z,90.22
2024-05-09T09:04:06.231Z,89.51
2024-05-09T09:05:06.187Z,87.27
2024-05-09T09:06:06.128Z,87.95
2024-05-09T09:07:06.146Z,86.08
2024-05-09T09:08:06.107Z,87.30
2024-05-09T09:09:06.130Z,86.29
2024-05-09T09:10:08.706Z,88.87
2024-05-09T09:11:06.125Z,86.66
2024-05-09T09:12:07.885Z,87.29
2024-05-09T09:13:06.238Z,87.37
2024-05-09T09:14:06.221Z,86.62
2024-05-09T09:15:06.215Z,87.40
2024-05-09T09:16:06.297Z,86.92
2024-05-09T09:17:06.251Z,86.57
2024-05-09T09:18:07.867Z,89.10
2024-05-09T09:19:06.432Z,89.13
2024-05-09T09:20:11.264Z,89.15
2024-05-09T09:21:07.249Z,89.20
2024-05-09T09:22:06.308Z,89.13
2024-05-09T09:23:06.264Z,88.30
2024-05-09T09:24:07.528Z,89.22
2024-05-09T09:25:06.344Z,87.02
2024-05-09T09:26:06.339Z,88.82
2024-05-09T09:27:06.319Z,88.94
2024-05-09T09:28:06.366Z,89.31
2024-05-09T09:29:06.351Z,89.08
2024-05-09T09:30:13.191Z,88.80
2024-05-09T09:31:07.436Z,88.89
2024-05-09T09:32:06.409Z,89.19
2024-05-09T09:33:06.768Z,89.86
2024-05-09T09:34:06.537Z,89.34
2024-05-09T09:35:06.449Z,90.15
2024-05-09T09:36:08.327Z,90.26
2024-05-09T09:37:16.977Z,50.00
2024-05-09T09:38:16.928Z,50.00
2024-05-09T09:39:16.952Z,50.00
2024-05-09T09:40:18.438Z,50.00
2024-05-09T09:41:16.939Z,50.00
2024-05-09T09:42:16.926Z,50.33
2024-05-09T09:43:16.968Z,50.00
2024-05-09T09:44:16.979Z,50.91
2024-05-09T09:45:16.948Z,51.75
2024-05-09T09:46:17.035Z,53.36
2024-05-09T09:47:17.014Z,52.84
2024-05-09T09:48:17.173Z,50.74
2024-05-09T09:49:17.433Z,50.00
2024-05-09T09:50:23.578Z,50.98
2024-05-09T09:51:17.958Z,51.07
2024-05-09T09:52:17.116Z,51.48
2024-05-09T09:53:16.968Z,51.32
2024-05-09T09:54:16.984Z,51.48
2024-05-09T09:55:17.014Z,52.90
2024-05-09T09:56:16.954Z,54.68
2024-05-09T09:57:16.990Z,53.56
2024-05-09T09:58:17.328Z,50.91
2024-05-09T09:59:17.000Z,50.77
2024-05-09T10:00:24.047Z,52.59
2024-05-09T10:01:18.091Z,52.61
2024-05-09T10:02:17.127Z,52.86
2024-05-09T10:03:17.081Z,51.88
2024-05-09T10:04:17.258Z,52.77
2024-05-09T10:05:17.091Z,52.74
2024-05-09T10:06:17.002Z,51.30
2024-05-09T10:07:17.032Z,53.09
2024-05-09T10:08:17.007Z,52.12
2024-05-09T10:09:17.007Z,50.57
2024-05-09T10:10:26.481Z,51.08
2024-05-09T10:11:18.054Z,51.14
2024-05-09T10:12:17.040Z,51.31
2024-05-09T10:13:17.059Z,51.92
2024-05-09T10:14:17.025Z,52.58
2024-05-09T10:15:17.039Z,55.49
2024-05-09T10:16:17.105Z,54.04
2024-05-09T10:17:17.119Z,53.08
2024-05-09T10:18:17.245Z,54.09
2024-05-09T10:19:17.151Z,52.35
2024-05-09T10:20:21.939Z,55.35
2024-05-09T10:21:18.096Z,55.33
2024-05-09T10:22:17.184Z,55.17
2024-05-09T10:23:17.102Z,55.90
2024-05-09T10:24:17.109Z,52.95
2024-05-09T10:25:17.191Z,55.13
2024-05-09T10:26:17.098Z,54.67
2024-05-09T10:27:17.095Z,53.82
2024-05-09T10:28:17.142Z,54.20
2024-05-09T10:29:17.168Z,56.39
2024-05-09T10:30:25.822Z,54.76
2024-05-09T10:31:18.163Z,54.79
2024-05-09T10:32:17.204Z,55.02
2024-05-09T10:33:17.283Z,53.97
2024-05-09T10:34:17.221Z,54.00
2024-05-09T10:35:17.141Z,54.50
2024-05-09T10:36:17.236Z,54.89
2024-05-09T10:37:17.223Z,55.26
2024-05-09T10:38:17.124Z,57.19
2024-05-09T10:39:17.143Z,52.99
2024-05-09T10:40:23.512Z,55.45
2024-05-09T10:41:18.134Z,55.55
2024-05-09T10:42:17.119Z,55.48
2024-05-09T10:43:17.366Z,55.72
2024-05-09T10:44:17.136Z,55.68
2024-05-09T10:45:17.146Z,56.85
2024-05-09T10:46:17.184Z,56.22
2024-05-09T10:47:17.176Z,53.45
2024-05-09T10:48:17.196Z,55.23
2024-05-09T10:49:17.314Z,53.39
2024-05-09T10:50:22.684Z,54.45
2024-05-09T10:51:18.271Z,54.58
2024-05-09T10:52:17.252Z,54.62
2024-05-09T10:53:17.140Z,55.02
2024-05-09T10:54:17.139Z,54.89
2024-05-09T10:55:17.220Z,56.56
2024-05-09T10:56:17.536Z,54.54
2024-05-09T10:57:17.165Z,54.33
2024-05-09T10:58:17.237Z,56.97
2024-05-09T10:59:17.169Z,54.38
2024-05-09T11:00:27.067Z,55.47
2024-05-09T11:01:18.259Z,55.07
2024-05-09T11:02:17.419Z,55.04
2024-05-09T11:03:17.221Z,54.69
2024-05-09T11:04:17.446Z,54.73
2024-05-09T11:05:17.378Z,53.81
2024-05-09T11:06:17.199Z,51.99
2024-05-09T11:07:17.238Z,56.35
2024-05-09T11:08:17.191Z,55.57
2024-05-09T11:09:17.203Z,55.07
2024-05-09T11:10:24.864Z,53.78
2024-05-09T11:11:18.267Z,53.87
2024-05-09T11:12:17.220Z,54.25
2024-05-09T11:13:17.316Z,54.44
2024-05-09T11:14:17.238Z,54.52
2024-05-09T11:15:17.232Z,54.85
2024-05-09T11:16:17.623Z,54.28
2024-05-09T11:17:17.249Z,56.11
2024-05-09T11:18:17.323Z,52.48
2024-05-09T11:19:17.375Z,54.87
2024-05-09T11:20:26.331Z,54.23
2024-05-09T11:21:18.271Z,54.11
2024-05-09T11:22:17.245Z,54.53
2024-05-09T11:23:17.223Z,54.18
2024-05-09T11:24:17.214Z,53.20
2024-05-09T11:25:17.338Z,53.98
2024-05-09T11:26:17.255Z,53.72
2024-05-09T11:27:17.218Z,52.37
2024-05-09T11:28:17.282Z,53.38
2024-05-09T11:29:19.584Z,53.58
2024-05-09T11:30:24.223Z,53.11
2024-05-09T11:31:18.581Z,53.17
2024-05-09T11:32:17.492Z,53.30
2024-05-09T11:33:17.563Z,53.61
2024-05-09T11:34:17.490Z,53.49
2024-05-09T11:35:17.441Z,53.63
2024-05-09T11:36:17.477Z,54.46
2024-05-09T11:37:17.648Z,53.79
2024-05-09T11:38:17.471Z,53.07
2024-05-09T11:39:17.486Z,54.35
2024-05-09T11:40:25.176Z,55.53
2024-05-09T11:41:18.694Z,55.55
2024-05-09T11:42:17.444Z,53.16
2024-05-09T11:43:17.581Z,53.18
2024-05-09T11:44:17.491Z,54.90
2024-05-09T11:45:17.624Z,54.20
2024-05-09T11:46:17.535Z,53.41
2024-05-09T11:47:17.519Z,52.12
2024-05-09T11:48:17.553Z,55.11
2024-05-09T11:49:17.671Z,52.06
2024-05-09T11:50:26.782Z,51.52
2024-05-09T11:51:18.494Z,51.66
2024-05-09T11:52:17.635Z,51.81
2024-05-09T11:53:17.539Z,52.23
2024-05-09T11:54:17.503Z,53.31
2024-05-09T11:55:17.701Z,53.15
2024-05-09T11:56:17.665Z,54.07
2024-05-09T11:57:17.495Z,52.28
2024-05-09T11:58:18.457Z,52.77
2024-05-09T11:59:17.525Z,54.42
2024-05-09T12:00:25.168Z,54.78
2024-05-09T12:01:18.617Z,54.81
2024-05-09T12:02:17.588Z,53.74
2024-05-09T12:03:17.580Z,54.94
2024-05-09T12:04:17.720Z,53.33
2024-05-09T12:05:17.791Z,54.03
2024-05-09T12:06:17.608Z,55.55
2024-05-09T12:07:17.668Z,51.19
2024-05-09T12:08:17.519Z,51.42
2024-05-09T12:09:17.561Z,51.34
2024-05-09T12:10:22.320Z,51.51
2024-05-09T12:11:18.553Z,51.29
2024-05-09T12:12:17.567Z,47.22
2024-05-09T12:13:17.587Z,43.27
2024-05-09T12:14:17.540Z,39.48
2024-05-09T12:15:17.767Z,36.32
2024-05-09T12:16:17.648Z,51.39
2024-05-09T12:17:17.652Z,51.83
2024-05-09T12:18:17.684Z,50.92
2024-05-09T12:19:17.682Z,50.00
2024-05-09T12:20:25.782Z,50.86
2024-05-09T12:21:18.765Z,49.03
2024-05-09T12:22:17.841Z,45.84
2024-05-09T12:23:17.750Z,44.67
2024-05-09T12:24:18.797Z,41.05
2024-05-09T12:25:18.008Z,39.56
2024-05-09T12:26:17.808Z,51.07
2024-05-09T12:27:17.794Z,51.14
2024-05-09T12:28:18.046Z,52.18
2024-05-09T12:29:17.799Z,50.00
2024-05-09T12:30:29.044Z,49.98
2024-05-09T12:31:18.867Z,50.01
2024-05-09T12:32:17.851Z,46.11
2024-05-09T12:33:17.876Z,44.38
2024-05-09T12:34:17.838Z,42.04
2024-05-09T12:35:17.832Z,42.18
2024-05-09T12:36:17.940Z,50.68
2024-05-09T12:37:17.926Z,53.50
2024-05-09T12:38:17.876Z,50.57
2024-05-09T12:39:17.805Z,50.00
2024-05-09T12:40:26.263Z,50.98
2024-05-09T12:41:18.838Z,50.99
2024-05-09T12:42:26.573Z,48.68
2024-05-09T12:43:18.974Z,50.93
2024-05-09T12:44:17.829Z,46.66
2024-05-09T12:45:17.826Z,47.19
2024-05-09T12:46:17.867Z,47.15
2024-05-09T12:47:17.919Z,47.70
2024-05-09T12:48:17.956Z,50.55
2024-05-09T12:49:19.468Z,51.32
2024-05-09T12:50:25.149Z,51.15
2024-05-09T12:51:18.853Z,51.23
2024-05-09T12:52:17.935Z,51.34
2024-05-09T12:53:17.908Z,51.44
2024-05-09T12:54:17.879Z,48.84
2024-05-09T12:55:17.983Z,48.41
2024-05-09T12:56:17.873Z,50.91
2024-05-09T12:57:17.869Z,50.00
2024-05-09T12:58:18.017Z,52.24
2024-05-09T12:59:17.876Z,51.10
2024-05-09T13:00:23.987Z,52.89
2024-05-09T13:01:18.953Z,52.33
2024-05-09T13:02:18.032Z,52.96
2024-05-09T13:03:17.973Z,51.69
2024-05-09T13:04:18.027Z,52.13
2024-05-09T13:05:18.061Z,48.79
2024-05-09T13:06:17.931Z,52.51
2024-05-09T13:07:17.953Z,53.76
2024-05-09T13:08:17.906Z,51.28
2024-05-09T13:09:17.901Z,50.62
2024-05-09T13:10:28.606Z,51.45
2024-05-09T13:11:19.003Z,49.99
2024-05-09T13:12:17.898Z,51.59
2024-05-09T13:13:18.023Z,50.03
2024-05-09T13:14:17.935Z,48.46
2024-05-09T13:15:17.965Z,50.70
2024-05-09T13:16:18.087Z,52.20
2024-05-09T13:17:17.976Z,52.24
2024-05-09T13:18:17.978Z,51.16
2024-05-09T13:19:18.041Z,51.84
2024-05-09T13:20:26.113Z,53.23
2024-05-09T13:21:18.984Z,52.77
2024-05-09T13:22:17.976Z,52.51
2024-05-09T13:23:17.957Z,52.84
2024-05-09T13:24:17.967Z,49.76
2024-05-09T13:25:18.009Z,53.13
2024-05-09T13:26:17.952Z,50.58
2024-05-09T13:27:17.995Z,54.65
2024-05-09T13:28:18.111Z,50.00
2024-05-09T13:29:17.978Z,51.87
2024-05-09T13:30:26.304Z,51.74
2024-05-09T13:31:19.048Z,51.88
2024-05-09T13:32:18.078Z,51.93
2024-05-09T13:33:18.306Z,51.47
2024-05-09T13:34:18.192Z,51.00
2024-05-09T13:35:18.077Z,50.42
2024-05-09T13:36:18.154Z,51.54
2024-05-09T13:37:18.089Z,51.36
2024-05-09T13:38:18.141Z,51.91
2024-05-09T13:39:18.155Z,51.67
2024-05-09T13:40:27.157Z,52.46
2024-05-09T13:41:19.305Z,52.50
2024-05-09T13:42:18.311Z,52.87
2024-05-09T13:43:18.638Z,53.19
2024-05-09T13:44:18.294Z,50.66
2024-05-09T13:45:18.335Z,51.64
2024-05-09T13:46:18.410Z,53.90
2024-05-09T13:47:18.431Z,54.04
2024-05-09T13:48:18.371Z,54.40
2024-05-09T13:49:18.474Z,53.94
2024-05-09T13:50:27.982Z,51.86
2024-05-09T13:51:19.590Z,51.98
2024-05-09T13:52:18.807Z,52.32
2024-05-09T13:53:18.534Z,52.17
2024-05-09T13:54:21.118Z,53.48
2024-05-09T13:55:18.569Z,51.94
2024-05-09T13:56:18.617Z,52.14
2024-05-09T13:57:18.530Z,52.37
2024-05-09T13:58:18.587Z,51.20
2024-05-09T13:59:18.518Z,49.92
2024-05-09T14:00:31.678Z,53.31
2024-05-09T14:01:19.680Z,53.33
2024-05-09T14:02:18.884Z,53.54
2024-05-09T14:03:20.064Z,53.84
2024-05-09T14:04:18.864Z,55.17
2024-05-09T14:05:18.941Z,55.22
2024-05-09T14:06:18.639Z,56.66
2024-05-09T14:07:18.748Z,60.65
2024-05-09T14:08:18.802Z,59.78
2024-05-09T14:09:18.833Z,60.19
2024-05-09T14:10:23.449Z,63.29
2024-05-09T14:11:20.017Z,63.36
2024-05-09T14:12:18.927Z,64.05
2024-05-09T14:13:18.980Z,64.66
2024-05-09T14:14:18.914Z,68.51
2024-05-09T14:15:18.912Z,72.79
2024-05-09T14:16:19.052Z,73.74
2024-05-09T14:17:19.011Z,76.09
2024-05-09T14:18:19.143Z,76.84
2024-05-09T14:19:18.999Z,81.97
2024-05-09T14:20:28.443Z,79.59
2024-05-09T14:21:19.938Z,79.72
2024-05-09T14:22:18.971Z,80.81
2024-05-09T14:23:18.933Z,81.99
2024-05-09T14:24:18.925Z,84.07
2024-05-09T14:25:19.046Z,87.66
2024-05-09T14:26:18.957Z,92.11
2024-05-09T14:27:18.973Z,92.85
2024-05-09T14:28:19.241Z,93.96
2024-05-09T14:29:19.167Z,95.54
2024-05-09T14:30:26.424Z,96.93
2024-05-09T14:31:20.292Z,97.00
2024-05-09T14:32:19.319Z,97.34
2024-05-09T14:33:19.351Z,98.38
2024-05-09T14:34:19.424Z,98.32
2024-05-09T14:35:19.326Z,103.72
2024-05-09T14:36:19.274Z,105.15
2024-05-09T14:37:19.273Z,106.17
2024-05-09T14:38:19.278Z,104.82
2024-05-09T14:39:19.393Z,109.49
2024-05-09T14:41:19.504Z,109.79
2024-05-09T14:42:19.482Z,111.25
2024-05-09T14:43:19.544Z,112.85
2024-05-09T14:44:19.475Z,113.46
2024-05-09T14:45:19.474Z,116.11
2024-05-09T14:46:19.592Z,114.80
2024-05-09T14:47:19.525Z,116.02
2024-05-09T14:48:19.628Z,116.31
2024-05-09T14:49:19.622Z,117.90
2024-05-09T14:50:27.886Z,119.53
2024-05-09T14:51:20.479Z,119.58
2024-05-09T14:52:19.576Z,119.84
2024-05-09T14:53:19.474Z,120.31
2024-05-09T14:54:19.517Z,121.15
2024-05-09T14:55:19.539Z,123.53
2024-05-09T14:56:19.508Z,124.56
2024-05-09T14:57:19.489Z,126.03
2024-05-09T14:58:19.522Z,127.13
2024-05-09T14:59:19.509Z,126.63
2024-05-09T15:00:26.258Z,125.57
2024-05-09T15:01:20.708Z,125.74
2024-05-09T15:02:19.729Z,125.64
2024-05-09T15:03:20.446Z,126.52
2024-05-09T15:04:19.827Z,127.43
2024-05-09T15:05:19.625Z,129.96
2024-05-09T15:06:19.614Z,129.42
2024-05-09T15:07:19.648Z,130.58
2024-05-09T15:08:19.562Z,130.83
2024-05-09T15:09:19.562Z,129.99
2024-05-09T15:10:26.988Z,131.29
2024-05-09T15:11:20.607Z,131.31
2024-05-09T15:12:19.561Z,131.40
2024-05-09T15:13:19.852Z,132.08
2024-05-09T15:14:19.564Z,131.60
2024-05-09T15:15:19.578Z,132.91
2024-05-09T15:16:19.711Z,134.59
2024-05-09T15:17:19.593Z,133.48
2024-05-09T15:18:19.718Z,134.46
2024-05-09T15:19:19.894Z,133.41
2024-05-09T15:20:27.740Z,136.10
2024-05-09T15:21:20.846Z,136.21
2024-05-09T15:22:19.910Z,136.28
2024-05-09T15:23:19.891Z,136.38
2024-05-09T15:24:19.855Z,134.14
2024-05-09T15:26:00.844Z,50.00
2024-05-09T15:27:00.846Z,50.00
2024-05-09T15:28:00.967Z,50.00
2024-05-09T15:29:00.836Z,50.00
2024-05-09T15:30:00.928Z,50.00
2024-05-09T15:31:00.974Z,52.35
2024-05-09T15:32:01.073Z,52.21
2024-05-09T15:33:01.588Z,52.37
2024-05-09T15:34:01.278Z,52.75
2024-05-09T15:35:01.272Z,52.38
2024-05-09T15:36:01.293Z,53.23
2024-05-09T15:37:01.369Z,52.42
2024-05-09T15:38:01.380Z,54.36
2024-05-09T15:39:01.418Z,54.58
2024-05-09T15:40:01.546Z,53.21
2024-05-09T15:41:01.596Z,51.44
2024-05-09T15:42:01.591Z,53.12
2024-05-09T15:43:01.693Z,53.27
2024-05-09T15:44:01.649Z,53.12
2024-05-09T15:45:01.778Z,53.60
2024-05-09T15:46:01.990Z,52.77
2024-05-09T15:47:02.022Z,53.45
2024-05-09T15:48:02.263Z,52.97
2024-05-09T15:49:02.430Z,55.67
2024-05-09T15:50:02.475Z,53.86
2024-05-09T15:51:02.627Z,53.86
2024-05-09T15:52:02.617Z,54.31
2024-05-09T15:53:02.677Z,56.02
2024-05-09T15:54:02.787Z,55.51
2024-05-09T15:55:02.916Z,55.02
2024-05-09T15:56:02.918Z,57.40
2024-05-09T15:57:03.008Z,55.68
2024-05-09T15:58:03.722Z,55.31
2024-05-09T15:59:03.179Z,55.63
2024-05-09T16:00:05.840Z,57.05
2024-05-09T16:01:03.400Z,57.00
2024-05-09T16:02:03.427Z,56.91
2024-05-09T16:03:03.304Z,58.05
2024-05-09T16:04:03.424Z,55.69
2024-05-09T16:05:03.493Z,57.08
2024-05-09T16:06:03.332Z,57.93
2024-05-09T16:07:03.312Z,57.12
2024-05-09T16:08:03.298Z,55.98
2024-05-09T16:09:03.283Z,59.15
2024-05-09T16:10:06.551Z,58.19
2024-05-09T16:11:03.576Z,58.21
2024-05-09T16:12:03.276Z,58.74
2024-05-09T16:13:04.095Z,58.01
2024-05-09T16:14:03.267Z,58.90
2024-05-09T16:15:03.303Z,58.36
2024-05-09T16:16:03.349Z,58.61
2024-05-09T16:17:03.387Z,59.31
2024-05-09T16:18:03.317Z,58.38
2024-05-09T16:19:03.305Z,58.71
2024-05-09T16:20:08.974Z,59.15
2024-05-09T16:21:04.306Z,59.24
2024-05-09T16:22:03.431Z,59.65
2024-05-09T16:23:03.290Z,59.82
2024-05-09T16:24:03.315Z,59.17
2024-05-09T16:25:03.524Z,61.88
2024-05-09T16:26:03.312Z,61.71
2024-05-09T16:27:03.314Z,59.77
2024-05-09T16:28:05.899Z,61.51
2024-05-09T16:29:04.324Z,61.52
2024-05-09T16:30:07.175Z,61.75
2024-05-09T16:31:04.435Z,61.62
2024-05-09T16:32:03.375Z,61.94
2024-05-09T16:33:04.315Z,61.89
2024-05-09T16:34:03.663Z,61.14
2024-05-09T16:35:03.555Z,62.63
2024-05-09T16:36:03.412Z,63.46
2024-05-09T16:37:03.381Z,62.47
2024-05-09T16:38:03.513Z,62.86
2024-05-09T16:39:03.356Z,62.43
2024-05-09T16:40:04.536Z,63.15
2024-05-09T16:41:03.434Z,61.02
2024-05-09T16:42:03.437Z,64.67
2024-05-09T16:43:03.735Z,60.52
2024-05-09T16:44:03.493Z,63.28
2024-05-09T16:45:03.664Z,63.01
2024-05-09T16:46:03.666Z,62.58
2024-05-09T16:47:03.670Z,60.14
2024-05-09T16:48:03.680Z,63.16
2024-05-09T16:49:03.647Z,63.67
2024-05-09T16:50:05.026Z,62.21
2024-05-09T16:51:03.744Z,62.34
2024-05-09T16:52:03.740Z,64.53
2024-05-09T16:53:04.577Z,63.43
2024-05-09T16:54:03.779Z,64.57
2024-05-09T16:55:04.058Z,62.23
2024-05-09T16:56:03.844Z,66.45
2024-05-09T16:57:03.972Z,64.10
2024-05-09T16:58:04.897Z,63.68
2024-05-09T16:59:04.104Z,64.89
2024-05-09T17:00:07.356Z,65.87
